createdAt,value
2023-05-01T00:00:23.890Z,65.23
2023-05-01T00:02:50.407Z,64.65
2023-05-01T00:05:16.967Z,65.02
2023-05-01T00:07:43.379Z,64.70
2023-05-01T00:10:09.837Z,64.93
2023-05-01T00:12:36.257Z,65.03
2023-05-01T00:15:02.673Z,65.52
2023-05-01T00:17:29.134Z,65.53
2023-05-01T00:19:55.757Z,65.34
2023-05-01T00:22:22.288Z,65.40
2023-05-01T00:24:49.987Z,65.36
2023-05-01T00:27:16.371Z,65.21
2023-05-01T00:29:42.794Z,65.04
2023-05-01T00:32:10.378Z,65.38
2023-05-01T00:34:36.856Z,64.96
2023-05-01T00:37:03.525Z,65.63
2023-05-01T00:39:29.985Z,65.31
2023-05-01T00:41:56.528Z,65.29
2023-05-01T00:44:22.919Z,65.19
2023-05-01T00:46:49.735Z,65.36
2023-05-01T00:49:17.627Z,65.25
2023-05-01T00:51:44.232Z,65.56
2023-05-01T00:54:10.921Z,65.82
2023-05-01T00:56:37.475Z,65.96
2023-05-01T00:59:04.912Z,65.76
2023-05-01T01:01:31.392Z,65.70
2023-05-01T01:03:57.825Z,66.00
2023-05-01T01:06:45.469Z,65.76
2023-05-01T01:09:29.078Z,66.29
2023-05-01T01:12:03.676Z,66.00
2023-05-01T01:15:02.765Z,66.46
2023-05-01T01:17:39.828Z,66.38
2023-05-01T01:20:40.967Z,66.13
2023-05-01T01:23:16.721Z,66.16
2023-05-01T01:26:33.573Z,66.69
2023-05-01T01:29:23.172Z,66.80
2023-05-01T01:32:11.271Z,66.54
2023-05-01T01:34:45.317Z,66.86
2023-05-01T01:37:14.677Z,66.78
2023-05-01T01:39:44.650Z,66.35
2023-05-01T01:42:15.906Z,66.72
2023-05-01T01:44:48.845Z,66.73
2023-05-01T01:47:15.998Z,67.01
2023-05-01T01:49:49.892Z,67.12
2023-05-01T01:52:17.124Z,66.79
2023-05-01T01:54:50.521Z,67.01
2023-05-01T01:57:19.060Z,66.72
2023-05-01T01:59:47.138Z,67.10
2023-05-01T02:02:16.119Z,67.28
2023-05-01T02:04:43.047Z,67.09
2023-05-01T02:07:11.394Z,66.97
2023-05-01T02:09:38.664Z,66.98
2023-05-01T02:12:06.966Z,67.23
2023-05-01T02:14:33.670Z,67.53
2023-05-01T02:17:00.136Z,67.30
2023-05-01T02:19:26.905Z,67.33
2023-05-01T02:21:56.850Z,67.20
2023-05-01T02:24:24.544Z,67.39
2023-05-01T02:26:59.505Z,67.67
2023-05-01T02:29:26.714Z,67.79
2023-05-01T02:31:53.155Z,67.44
2023-05-01T02:34:19.699Z,67.42
2023-05-01T02:36:46.115Z,67.06
2023-05-01T02:39:12.555Z,67.90
2023-05-01T02:41:39.368Z,67.83
2023-05-01T02:44:07.674Z,67.74
2023-05-01T02:46:36.867Z,67.87
2023-05-01T02:49:03.826Z,67.69
2023-05-01T02:51:33.651Z,67.66
2023-05-01T02:54:00.225Z,68.29
2023-05-01T02:56:27.937Z,67.74
2023-05-01T02:58:54.434Z,68.02
2023-05-01T03:01:21.202Z,68.08
2023-05-01T03:03:47.751Z,68.02
2023-05-01T03:06:14.300Z,68.34
2023-05-01T03:08:40.933Z,67.85
2023-05-01T03:11:07.852Z,67.86
2023-05-01T03:13:34.849Z,67.95
2023-05-01T03:16:01.970Z,67.73
2023-05-01T03:18:28.400Z,68.32
2023-05-01T03:20:54.999Z,68.19
2023-05-01T03:23:21.436Z,67.92
2023-05-01T03:25:47.834Z,68.46
2023-05-01T03:28:14.230Z,68.82
2023-05-01T03:30:40.710Z,69.18
2023-05-01T03:33:07.133Z,68.99
2023-05-01T03:35:33.689Z,69.18
2023-05-01T03:38:00.359Z,68.42
2023-05-01T03:40:26.863Z,68.68
2023-05-01T03:42:53.297Z,68.85
2023-05-01T03:45:19.648Z,69.26
2023-05-01T03:47:46.509Z,68.45
2023-05-01T03:50:14.369Z,69.05
2023-05-01T03:52:40.824Z,69.25
2023-05-01T03:55:07.920Z,69.03
2023-05-01T03:57:34.404Z,69.45
2023-05-01T04:00:00.962Z,69.09
2023-05-01T04:02:27.969Z,68.82
2023-05-01T04:04:54.478Z,69.14
2023-05-01T04:07:20.870Z,69.19
2023-05-01T04:09:48.259Z,69.00
2023-05-01T04:12:14.627Z,69.12
2023-05-01T04:14:40.992Z,69.80
2023-05-01T04:17:07.427Z,69.16
2023-05-01T04:19:34.811Z,69.84
2023-05-01T04:22:01.471Z,69.05
2023-05-01T04:24:27.972Z,69.66
2023-05-01T04:26:54.344Z,69.58
2023-05-01T04:29:20.965Z,69.26
2023-05-01T04:31:47.453Z,69.57
2023-05-01T04:34:13.848Z,69.31
2023-05-01T04:36:40.374Z,69.97
2023-05-01T04:39:06.803Z,69.20
2023-05-01T04:41:33.179Z,69.30
2023-05-01T04:43:59.538Z,69.27
2023-05-01T04:46:26.065Z,69.22
2023-05-01T04:48:52.477Z,69.62
2023-05-01T04:51:19.751Z,69.78
2023-05-01T04:53:46.108Z,69.96
2023-05-01T04:56:12.616Z,68.81
2023-05-01T04:58:39.228Z,70.15
2023-05-01T05:01:05.779Z,70.06
2023-05-01T05:03:32.361Z,69.58
2023-05-01T05:05:59.013Z,69.72
2023-05-01T05:08:25.513Z,70.50
2023-05-01T05:10:57.020Z,69.72
2023-05-01T05:13:23.384Z,69.67
2023-05-01T05:15:49.739Z,69.89
2023-05-01T05:18:16.175Z,69.69
2023-05-01T05:20:42.622Z,69.88
2023-05-01T05:23:09.054Z,69.69
2023-05-01T05:25:35.518Z,70.36
2023-05-01T05:28:01.991Z,70.40
2023-05-01T05:30:28.526Z,69.74
2023-05-01T05:32:55.166Z,69.13
2023-05-01T05:35:21.965Z,69.14
2023-05-01T05:37:48.371Z,70.50
2023-05-01T05:40:14.897Z,69.84
2023-05-01T05:42:41.388Z,70.67
2023-05-01T05:45:08.350Z,71.04
2023-05-01T05:47:34.754Z,70.90
2023-05-01T05:50:01.121Z,70.62
2023-05-01T05:52:27.753Z,71.07
2023-05-01T05:54:54.120Z,70.64
2023-05-01T05:57:20.565Z,71.21
2023-05-01T05:59:46.933Z,71.05
2023-05-01T06:02:13.742Z,70.00
2023-05-01T06:04:40.215Z,70.49
2023-05-01T06:07:06.590Z,70.87
2023-05-01T06:09:33.428Z,70.12
2023-05-01T06:11:59.819Z,69.49
2023-05-01T06:14:26.232Z,70.01
2023-05-01T06:16:52.622Z,67.62
2023-05-01T06:19:19.083Z,68.34
2023-05-01T06:21:45.577Z,67.87
2023-05-01T06:24:12.541Z,66.53
2023-05-01T06:26:38.937Z,65.85
2023-05-01T06:29:05.417Z,65.42
2023-05-01T06:31:31.936Z,65.80
2023-05-01T06:33:58.455Z,64.31
2023-05-01T06:36:24.824Z,63.48
2023-05-01T06:38:51.200Z,60.62
2023-05-01T06:41:17.626Z,60.10
2023-05-01T06:43:44.046Z,59.75
2023-05-01T06:46:10.572Z,60.12
2023-05-01T06:48:37.020Z,59.64
2023-05-01T06:51:03.592Z,60.80
2023-05-01T06:53:30.049Z,61.89
2023-05-01T06:55:56.476Z,60.62
2023-05-01T06:58:24.615Z,60.07
2023-05-01T07:00:52.286Z,61.06
2023-05-01T07:03:18.927Z,60.53
2023-05-01T07:05:45.450Z,58.98
2023-05-01T07:08:11.954Z,58.92
2023-05-01T07:10:39.878Z,60.77
2023-05-01T07:13:08.287Z,59.47
2023-05-01T07:15:34.677Z,59.17
2023-05-01T07:18:03.233Z,60.15
2023-05-01T07:20:30.481Z,61.23
2023-05-01T07:22:56.883Z,60.90
2023-05-01T07:25:23.324Z,61.25
2023-05-01T07:27:49.684Z,61.23
2023-05-01T07:30:17.080Z,60.74
2023-05-01T07:32:43.705Z,60.14
2023-05-01T07:35:10.249Z,60.19
2023-05-01T07:37:36.707Z,60.49
2023-05-01T07:40:03.559Z,60.92
2023-05-01T07:42:30.089Z,60.88
2023-05-01T07:44:56.468Z,61.76
2023-05-01T07:47:22.874Z,61.00
2023-05-01T07:49:49.692Z,59.85
2023-05-01T07:52:16.364Z,60.26
2023-05-01T07:54:42.874Z,59.54
2023-05-01T07:57:09.299Z,59.65
2023-05-01T07:59:35.808Z,57.77
2023-05-01T08:02:03.317Z,58.09
2023-05-01T08:04:29.838Z,57.47
2023-05-01T08:06:57.584Z,57.99
2023-05-01T08:09:26.076Z,58.17
2023-05-01T08:11:52.520Z,56.05
2023-05-01T08:14:19.373Z,57.23
2023-05-01T08:16:45.917Z,55.85
2023-05-01T08:19:12.563Z,55.85
2023-05-01T08:21:39.244Z,57.39
2023-05-01T08:24:09.083Z,56.61
2023-05-01T08:26:35.502Z,54.66
2023-05-01T08:29:01.913Z,53.49
2023-05-01T08:31:28.296Z,53.08
2023-05-01T08:33:54.766Z,53.63
2023-05-01T08:36:21.423Z,53.34
2023-05-01T08:38:47.986Z,54.46
2023-05-01T08:41:21.247Z,52.13
2023-05-01T08:43:48.775Z,50.82
2023-05-01T08:46:41.404Z,52.08
2023-05-01T08:49:09.288Z,51.71
2023-05-01T08:51:36.370Z,48.59
2023-05-01T08:54:03.694Z,50.58
2023-05-01T08:56:31.257Z,50.96
2023-05-01T08:58:58.568Z,50.48
2023-05-01T09:01:25.094Z,48.64
2023-05-01T09:03:52.848Z,49.58
2023-05-01T09:06:20.308Z,46.98
2023-05-01T09:08:46.739Z,47.22
2023-05-01T09:11:13.184Z,45.68
2023-05-01T09:13:39.652Z,46.47
2023-05-01T09:16:06.616Z,47.71
2023-05-01T09:18:34.552Z,43.37
2023-05-01T09:21:01.956Z,41.42
2023-05-01T09:23:28.355Z,40.67
2023-05-01T09:25:55.330Z,41.75
2023-05-01T09:28:45.080Z,42.62
2023-05-01T09:31:22.898Z,41.62
2023-05-01T09:34:00.330Z,39.71
2023-05-01T09:36:28.242Z,42.59
2023-05-01T09:38:54.725Z,40.97
2023-05-01T09:41:22.214Z,40.96
2023-05-01T09:43:53.158Z,41.63
2023-05-01T09:46:20.029Z,41.10
2023-05-01T09:49:12.932Z,39.89
2023-05-01T09:51:39.509Z,39.81
2023-05-01T09:54:17.793Z,40.21
2023-05-01T09:56:48.413Z,40.25
2023-05-01T09:59:21.191Z,41.35
2023-05-01T10:01:50.540Z,41.44
2023-05-01T10:04:17.366Z,41.24
2023-05-01T10:06:44.049Z,42.04
2023-05-01T10:09:17.704Z,42.06
2023-05-01T10:11:52.084Z,41.80
2023-05-01T10:14:18.566Z,45.18
2023-05-01T10:16:45.022Z,39.88
2023-05-01T10:19:12.610Z,41.74
2023-05-01T10:21:39.043Z,38.64
2023-05-01T10:24:06.394Z,38.95
2023-05-01T10:26:33.504Z,39.73
2023-05-01T10:29:01.270Z,39.62
2023-05-01T10:31:28.750Z,38.15
2023-05-01T10:33:56.010Z,38.34
2023-05-01T10:36:28.725Z,37.72
2023-05-01T10:38:55.208Z,38.94
2023-05-01T10:41:58.939Z,40.67
2023-05-01T10:44:26.870Z,40.16
2023-05-01T10:46:54.151Z,40.83
2023-05-01T10:49:21.520Z,40.75
2023-05-01T10:52:08.220Z,45.15
2023-05-01T10:54:34.675Z,42.49
2023-05-01T10:57:02.730Z,44.81
2023-05-01T11:00:00.189Z,40.41
2023-05-01T11:02:26.904Z,41.59
2023-05-01T11:04:56.093Z,37.56
2023-05-01T11:07:23.669Z,39.67
2023-05-01T11:09:55.321Z,38.95
2023-05-01T11:12:47.002Z,37.26
2023-05-01T11:15:13.602Z,40.53
2023-05-01T11:17:40.134Z,42.47
2023-05-01T11:20:10.215Z,42.08
2023-05-01T11:22:38.140Z,42.59
2023-05-01T11:25:18.085Z,41.74
2023-05-01T11:27:52.850Z,42.12
2023-05-01T11:30:19.948Z,42.73
2023-05-01T11:32:48.006Z,44.53
2023-05-01T11:35:20.801Z,42.57
2023-05-01T11:37:48.040Z,40.31
2023-05-01T11:40:24.513Z,40.36
2023-05-01T11:42:52.231Z,39.82
2023-05-01T11:45:21.609Z,38.97
2023-05-01T11:47:48.125Z,39.33
2023-05-01T11:50:14.627Z,39.00
2023-05-01T11:52:54.551Z,40.24
2023-05-01T11:55:21.550Z,41.25
2023-05-01T11:57:49.593Z,42.26
2023-05-01T12:00:25.501Z,42.60
2023-05-01T12:03:12.021Z,44.10
2023-05-01T12:05:45.576Z,44.67
2023-05-01T12:08:15.564Z,45.19
2023-05-01T12:10:43.261Z,44.41
2023-05-01T12:13:11.525Z,46.47
2023-05-01T12:15:40.787Z,46.85
2023-05-01T12:18:07.680Z,46.83
2023-05-01T12:20:55.232Z,47.91
2023-05-01T12:23:33.305Z,48.65
2023-05-01T12:26:00.349Z,48.85
2023-05-01T12:28:27.551Z,49.18
2023-05-01T12:30:57.634Z,49.58
2023-05-01T12:33:24.063Z,49.08
2023-05-01T12:35:50.711Z,49.40
2023-05-01T12:38:20.908Z,50.37
2023-05-01T12:40:59.291Z,52.98
2023-05-01T12:43:32.643Z,52.69
2023-05-01T12:45:59.195Z,52.90
2023-05-01T12:48:25.824Z,52.90
2023-05-01T12:50:55.175Z,53.18
2023-05-01T12:53:26.097Z,54.35
2023-05-01T12:55:56.784Z,53.24
2023-05-01T12:58:24.028Z,54.32
2023-05-01T13:00:52.918Z,54.75
2023-05-01T13:03:25.925Z,54.19
2023-05-01T13:05:56.527Z,53.43
2023-05-01T13:08:30.706Z,54.14
2023-05-01T13:11:01.493Z,54.50
2023-05-01T13:13:33.578Z,54.88
2023-05-01T13:16:14.518Z,53.55
2023-05-01T13:18:53.598Z,54.16
2023-05-01T13:21:22.062Z,54.37
2023-05-01T13:23:58.645Z,54.79
2023-05-01T13:26:31.088Z,55.09
2023-05-01T13:28:58.668Z,55.49
2023-05-01T13:31:25.426Z,53.73
2023-05-01T13:33:54.941Z,53.21
2023-05-01T13:36:25.825Z,53.68
2023-05-01T13:38:55.962Z,53.42
2023-05-01T13:41:24.300Z,53.27
2023-05-01T13:43:52.105Z,52.61
2023-05-01T13:46:20.139Z,53.84
2023-05-01T13:48:47.626Z,54.85
2023-05-01T13:51:16.126Z,53.03
2023-05-01T13:53:42.948Z,53.05
2023-05-01T13:56:10.414Z,52.77
2023-05-01T13:58:36.853Z,53.71
2023-05-01T14:01:06.292Z,53.92
2023-05-01T14:03:39.889Z,53.56
2023-05-01T14:06:09.925Z,54.17
2023-05-01T14:08:36.880Z,54.37
2023-05-01T14:11:10.101Z,55.01
2023-05-01T14:13:36.634Z,54.39
2023-05-01T14:16:10.354Z,54.51
2023-05-01T14:18:44.056Z,54.98
2023-05-01T14:21:11.175Z,51.38
2023-05-01T14:23:39.457Z,51.04
2023-05-01T14:26:08.199Z,49.47
2023-05-01T14:28:41.735Z,49.97
2023-05-01T14:31:08.503Z,48.97
2023-05-01T14:33:41.625Z,47.98
2023-05-01T14:36:08.246Z,46.91
2023-05-01T14:38:39.114Z,46.15
2023-05-01T14:41:11.195Z,46.99
2023-05-01T14:43:41.232Z,46.82
2023-05-01T14:46:07.903Z,46.36
2023-05-01T14:48:35.900Z,47.59
2023-05-01T14:51:04.636Z,47.69
2023-05-01T14:53:33.838Z,47.65
2023-05-01T14:56:00.451Z,47.60
2023-05-01T14:58:26.874Z,47.17
2023-05-01T15:00:53.392Z,43.92
2023-05-01T15:03:19.921Z,45.20
2023-05-01T15:05:46.497Z,44.69
2023-05-01T15:08:12.960Z,45.63
2023-05-01T15:10:39.376Z,43.64
2023-05-01T15:13:06.568Z,44.14
2023-05-01T15:15:33.063Z,44.15
2023-05-01T15:17:59.586Z,42.43
2023-05-01T15:20:26.026Z,45.11
2023-05-01T15:22:52.445Z,44.50
2023-05-01T15:25:18.919Z,43.38
2023-05-01T15:27:46.149Z,43.73
2023-05-01T15:30:12.851Z,43.38
2023-05-01T15:32:39.740Z,43.88
2023-05-01T15:35:06.286Z,44.77
2023-05-01T15:37:33.074Z,45.74
2023-05-01T15:39:59.675Z,46.41
2023-05-01T15:42:26.272Z,48.06
2023-05-01T15:44:52.891Z,51.21
2023-05-01T15:47:19.265Z,53.43
2023-05-01T15:49:45.762Z,56.36
2023-05-01T15:52:12.167Z,58.31
2023-05-01T15:54:38.608Z,59.35
2023-05-01T15:57:04.976Z,59.38
2023-05-01T15:59:31.370Z,60.75
2023-05-01T16:01:57.790Z,60.21
2023-05-01T16:04:24.218Z,61.13
2023-05-01T16:06:51.217Z,61.98
2023-05-01T16:09:18.820Z,60.93
2023-05-01T16:11:45.274Z,61.64
2023-05-01T16:14:12.600Z,60.76
2023-05-01T16:16:41.772Z,59.92
2023-05-01T16:19:08.431Z,60.71
2023-05-01T16:21:36.784Z,59.92
2023-05-01T16:24:03.642Z,59.88
2023-05-01T16:26:30.976Z,60.15
2023-05-01T16:29:02.975Z,60.17
2023-05-01T16:31:35.104Z,59.14
2023-05-01T16:34:01.998Z,58.74
2023-05-01T16:36:28.475Z,59.31
2023-05-01T16:38:54.903Z,59.67
2023-05-01T16:41:21.336Z,58.74
2023-05-01T16:43:47.758Z,57.87
2023-05-01T16:46:16.584Z,58.48
2023-05-01T16:48:43.135Z,59.66
2023-05-01T16:51:10.235Z,58.74
2023-05-01T16:53:36.681Z,58.11
2023-05-01T16:56:04.664Z,58.38
2023-05-01T16:58:31.289Z,58.02
2023-05-01T17:00:57.723Z,57.54
2023-05-01T17:03:24.211Z,58.11
2023-05-01T17:05:50.910Z,58.94
2023-05-01T17:08:17.327Z,58.89
2023-05-01T17:10:44.952Z,58.20
2023-05-01T17:13:13.622Z,58.27
2023-05-01T17:15:40.072Z,57.53
2023-05-01T17:18:06.623Z,58.37
2023-05-01T17:20:33.118Z,58.54
2023-05-01T17:22:59.584Z,57.77
2023-05-01T17:25:25.976Z,57.83
2023-05-01T17:27:52.690Z,58.91
2023-05-01T17:30:19.077Z,58.41
2023-05-01T17:32:45.713Z,58.57
2023-05-01T17:35:12.142Z,59.43
2023-05-01T17:37:39.930Z,58.77
2023-05-01T17:40:08.826Z,59.21
2023-05-01T17:42:36.198Z,59.43
2023-05-01T17:45:03.448Z,58.98
2023-05-01T17:47:29.920Z,59.47
2023-05-01T17:49:56.486Z,60.29
2023-05-01T17:52:24.951Z,59.50
2023-05-01T17:54:51.546Z,59.60
2023-05-01T17:57:18.034Z,60.11
2023-05-01T17:59:44.411Z,59.52
2023-05-01T18:02:11.013Z,59.77
2023-05-01T18:04:38.462Z,59.65
2023-05-01T18:07:05.033Z,59.54
2023-05-01T18:09:31.433Z,60.96
2023-05-01T18:11:58.308Z,60.96
2023-05-01T18:14:25.013Z,60.79
2023-05-01T18:16:52.824Z,60.92
2023-05-01T18:19:19.340Z,61.07
2023-05-01T18:21:45.884Z,61.35
2023-05-01T18:24:12.468Z,61.12
2023-05-01T18:26:38.900Z,61.00
2023-05-01T18:29:05.402Z,61.32
2023-05-01T18:31:34.039Z,60.99
2023-05-01T18:34:01.725Z,61.89
2023-05-01T18:36:28.410Z,62.00
2023-05-01T18:38:55.645Z,62.11
2023-05-01T18:41:22.703Z,62.26
2023-05-01T18:43:54.245Z,62.55
2023-05-01T18:46:22.301Z,62.45
2023-05-01T18:48:48.808Z,63.10
2023-05-01T18:51:15.271Z,62.70
2023-05-01T18:53:41.631Z,62.84
2023-05-01T18:56:09.457Z,63.19
2023-05-01T18:58:35.929Z,63.53
2023-05-01T19:01:02.539Z,63.90
2023-05-01T19:03:29.103Z,64.02
2023-05-01T19:05:55.546Z,65.06
2023-05-01T19:08:21.945Z,65.48
2023-05-01T19:10:48.355Z,66.01
2023-05-01T19:13:14.710Z,67.21
2023-05-01T19:15:41.189Z,67.46
2023-05-01T19:18:08.103Z,67.97
2023-05-01T19:20:34.597Z,68.33
2023-05-01T19:23:01.110Z,68.96
2023-05-01T19:25:27.590Z,69.50
2023-05-01T19:27:54.002Z,69.57
2023-05-01T19:30:20.570Z,69.78
2023-05-01T19:32:47.144Z,69.47
2023-05-01T19:35:13.687Z,69.55
2023-05-01T19:37:40.144Z,69.50
2023-05-01T19:40:07.328Z,69.79
2023-05-01T19:42:33.692Z,70.32
2023-05-01T19:45:00.148Z,70.22
2023-05-01T19:47:26.610Z,70.85
2023-05-01T19:49:53.048Z,71.35
2023-05-01T19:52:19.659Z,71.45
2023-05-01T19:54:46.080Z,71.61
2023-05-01T19:57:12.879Z,71.31
2023-05-01T19:59:41.181Z,71.25
2023-05-01T20:02:07.767Z,71.37
2023-05-01T20:04:34.277Z,71.88
2023-05-01T20:07:02.664Z,71.98
2023-05-01T20:09:29.032Z,71.70
2023-05-01T20:11:55.680Z,71.71
2023-05-01T20:14:22.079Z,72.41
2023-05-01T20:16:50.406Z,73.01
2023-05-01T20:19:17.741Z,72.48
2023-05-01T20:21:44.152Z,72.63
2023-05-01T20:24:11.176Z,72.30
2023-05-01T20:26:37.537Z,72.42
2023-05-01T20:29:04.068Z,72.22
2023-05-01T20:31:30.731Z,72.18
2023-05-01T20:33:57.187Z,72.45
2023-05-01T20:36:25.208Z,72.53
2023-05-01T20:38:53.187Z,73.05
2023-05-01T20:41:19.641Z,73.38
2023-05-01T20:43:46.397Z,73.39
2023-05-01T20:46:12.834Z,73.20
2023-05-01T20:48:39.239Z,72.84
2023-05-01T20:51:05.657Z,73.44
2023-05-01T20:53:32.154Z,73.04
2023-05-01T20:55:58.518Z,73.58
2023-05-01T20:58:24.919Z,72.80
2023-05-01T21:00:53.778Z,72.81
2023-05-01T21:03:20.281Z,73.03
2023-05-01T21:05:46.827Z,72.58
2023-05-01T21:08:13.387Z,72.64
2023-05-01T21:10:40.026Z,72.65
2023-05-01T21:13:06.501Z,72.29
2023-05-01T21:15:33.868Z,72.25
2023-05-01T21:18:01.212Z,72.49
2023-05-01T21:20:32.013Z,72.24
2023-05-01T21:22:59.938Z,72.43
2023-05-01T21:25:27.412Z,72.20
2023-05-01T21:27:54.210Z,72.07
2023-05-01T21:30:32.101Z,71.50
2023-05-01T21:32:58.692Z,71.53
2023-05-01T21:35:31.295Z,71.50
2023-05-01T21:37:58.403Z,71.96
2023-05-01T21:40:25.498Z,71.95
2023-05-01T21:42:53.551Z,71.93
2023-05-01T21:45:20.180Z,71.51
2023-05-01T21:47:48.676Z,71.73
2023-05-01T21:50:17.480Z,71.83
2023-05-01T21:52:45.186Z,71.84
2023-05-01T21:55:17.195Z,71.98
2023-05-01T21:57:43.715Z,71.81
2023-05-01T22:00:10.501Z,72.26
2023-05-01T22:02:41.112Z,72.78
2023-05-01T22:05:08.771Z,72.56
2023-05-01T22:07:38.288Z,72.21
2023-05-01T22:10:05.061Z,72.59
2023-05-01T22:12:31.428Z,72.79
2023-05-01T22:14:57.788Z,73.07
2023-05-01T22:17:24.356Z,73.31
2023-05-01T22:19:51.599Z,73.14
2023-05-01T22:22:18.457Z,73.40
2023-05-01T22:24:44.974Z,73.51
2023-05-01T22:27:11.445Z,73.93
2023-05-01T22:29:37.889Z,74.39
2023-05-01T22:32:04.872Z,74.53
2023-05-01T22:34:31.333Z,75.38
2023-05-01T22:36:57.778Z,75.40
2023-05-01T22:39:24.166Z,75.72
2023-05-01T22:41:50.570Z,75.83
2023-05-01T22:44:16.922Z,75.69
2023-05-01T22:46:44.420Z,75.28
2023-05-01T22:49:10.910Z,75.96
2023-05-01T22:51:37.374Z,76.33
2023-05-01T22:54:03.814Z,76.16
2023-05-01T22:56:30.188Z,76.45
2023-05-01T22:58:56.643Z,76.35
2023-05-01T23:01:23.140Z,76.02
2023-05-01T23:03:50.331Z,76.41
2023-05-01T23:06:18.631Z,76.45
2023-05-01T23:08:45.097Z,76.15
2023-05-01T23:11:11.898Z,76.14
2023-05-01T23:13:41.933Z,75.66
2023-05-01T23:16:08.494Z,75.46
2023-05-01T23:18:37.630Z,75.39
2023-05-01T23:21:04.802Z,75.31
2023-05-01T23:23:31.788Z,75.59
2023-05-01T23:25:58.290Z,75.18
2023-05-01T23:28:26.122Z,75.83
2023-05-01T23:30:57.078Z,76.17
2023-05-01T23:33:37.778Z,75.91
2023-05-01T23:36:04.405Z,76.30
2023-05-01T23:38:30.830Z,76.35
2023-05-01T23:40:57.206Z,76.67
2023-05-01T23:43:23.552Z,76.91
2023-05-01T23:45:49.957Z,76.63
2023-05-01T23:48:16.434Z,76.92
2023-05-01T23:50:42.946Z,77.20
2023-05-01T23:53:10.595Z,77.03
2023-05-01T23:55:38.254Z,76.81
2023-05-01T23:58:04.734Z,76.45
